createdAt,value
2023-05-08T00:00:11.089Z,1014.31
2023-05-08T00:01:11.288Z,1014.36
2023-05-08T00:02:11.602Z,1014.37
2023-05-08T00:03:12.006Z,1014.37
2023-05-08T00:04:12.392Z,1014.35
2023-05-08T00:05:12.605Z,1014.37
2023-05-08T00:06:12.879Z,1014.40
2023-05-08T00:07:13.206Z,1014.42
2023-05-08T00:08:13.506Z,1014.40
2023-05-08T00:09:13.830Z,1014.37
2023-05-08T00:10:14.439Z,1014.43
2023-05-08T00:11:14.361Z,1014.45
2023-05-08T00:12:14.683Z,1014.43
2023-05-08T00:13:15.019Z,1014.44
2023-05-08T00:14:15.398Z,1014.47
2023-05-08T00:15:15.519Z,1014.44
2023-05-08T00:16:15.832Z,1014.48
2023-05-08T00:17:16.117Z,1014.46
2023-05-08T00:18:16.384Z,1014.48
2023-05-08T00:19:16.721Z,1014.48
2023-05-08T00:20:17.012Z,1014.46
2023-05-08T00:21:17.312Z,1014.49
2023-05-08T00:22:17.588Z,1014.50
2023-05-08T00:23:17.896Z,1014.52
2023-05-08T00:24:18.222Z,1014.53
2023-05-08T00:25:18.506Z,1014.53
2023-05-08T00:26:18.799Z,1014.57
2023-05-08T00:27:19.085Z,1014.53
2023-05-08T00:28:19.394Z,1014.56
2023-05-08T00:29:19.705Z,1014.56
2023-05-08T00:30:19.992Z,1014.57
2023-05-08T00:31:20.299Z,1014.54
2023-05-08T00:32:20.664Z,1014.52
2023-05-08T00:33:20.890Z,1014.55
2023-05-08T00:34:21.199Z,1014.55
2023-05-08T00:35:21.552Z,1014.54
2023-05-08T00:36:21.812Z,1014.58
2023-05-08T00:37:22.090Z,1014.56
2023-05-08T00:38:22.391Z,1014.59
2023-05-08T00:39:22.665Z,1014.58
2023-05-08T00:40:22.977Z,1014.60
2023-05-08T00:41:23.262Z,1014.58
2023-05-08T00:42:23.583Z,1014.62
2023-05-08T00:43:23.911Z,1014.60
2023-05-08T00:44:24.218Z,1014.58
2023-05-08T00:45:24.495Z,1014.55
2023-05-08T00:46:24.856Z,1014.58
2023-05-08T00:47:25.094Z,1014.58
2023-05-08T00:48:25.420Z,1014.57
2023-05-08T00:49:25.681Z,1014.60
2023-05-08T00:50:25.996Z,1014.58
2023-05-08T00:51:26.292Z,1014.60
2023-05-08T00:52:26.576Z,1014.57
2023-05-08T00:53:26.872Z,1014.58
2023-05-08T00:54:27.155Z,1014.62
2023-05-08T00:55:27.472Z,1014.62
2023-05-08T00:56:27.747Z,1014.63
2023-05-08T00:57:28.020Z,1014.65
2023-05-08T00:58:28.332Z,1014.67
2023-05-08T00:59:28.647Z,1014.68
2023-05-08T01:00:28.952Z,1014.65
2023-05-08T01:01:29.234Z,1014.66
2023-05-08T01:02:36.644Z,1014.65
2023-05-08T01:03:31.623Z,1014.65
2023-05-08T01:04:30.083Z,1014.69
2023-05-08T01:05:30.366Z,1014.67
2023-05-08T01:06:30.657Z,1014.66
2023-05-08T01:07:31.000Z,1014.68
2023-05-08T01:08:31.254Z,1014.67
2023-05-08T01:09:31.550Z,1014.64
2023-05-08T01:10:31.846Z,1014.66
2023-05-08T01:11:32.139Z,1014.68
2023-05-08T01:12:32.420Z,1014.65
2023-05-08T01:13:32.729Z,1014.65
2023-05-08T01:14:33.020Z,1014.64
2023-05-08T01:15:33.281Z,1014.64
2023-05-08T01:16:33.739Z,1014.63
2023-05-08T01:17:33.908Z,1014.62
2023-05-08T01:18:34.300Z,1014.66
2023-05-08T01:19:34.449Z,1014.62
2023-05-08T01:20:34.763Z,1014.67
2023-05-08T01:21:35.081Z,1014.66
2023-05-08T01:22:35.358Z,1014.68
2023-05-08T01:23:35.700Z,1014.65
2023-05-08T01:24:35.949Z,1014.63
2023-05-08T01:25:36.260Z,1014.67
2023-05-08T01:26:36.516Z,1014.67
2023-05-08T01:27:36.804Z,1014.65
2023-05-08T01:28:37.099Z,1014.71
2023-05-08T01:29:37.458Z,1014.64
2023-05-08T01:30:37.731Z,1014.68
2023-05-08T01:31:37.971Z,1014.70
2023-05-08T01:32:38.331Z,1014.69
2023-05-08T01:33:38.608Z,1014.65
2023-05-08T01:34:38.858Z,1014.70
2023-05-08T01:35:39.166Z,1014.68
2023-05-08T01:36:39.458Z,1014.68
2023-05-08T01:37:39.736Z,1014.67
2023-05-08T01:38:40.046Z,1014.64
2023-05-08T01:39:40.362Z,1014.66
2023-05-08T01:40:40.741Z,1014.67
2023-05-08T01:41:41.018Z,1014.64
2023-05-08T01:42:41.311Z,1014.69
2023-05-08T01:43:41.588Z,1014.67
2023-05-08T01:44:41.900Z,1014.66
2023-05-08T01:45:42.253Z,1014.62
2023-05-08T01:46:42.558Z,1014.65
2023-05-08T01:47:42.858Z,1014.64
2023-05-08T01:48:43.158Z,1014.64
2023-05-08T01:49:43.459Z,1014.59
2023-05-08T01:50:43.847Z,1014.59
2023-05-08T01:51:44.007Z,1014.60
2023-05-08T01:52:44.308Z,1014.60
2023-05-08T01:53:44.577Z,1014.59
2023-05-08T01:54:44.829Z,1014.62
2023-05-08T01:55:45.122Z,1014.64
2023-05-08T01:56:45.381Z,1014.66
2023-05-08T01:57:45.731Z,1014.59
2023-05-08T01:58:45.973Z,1014.68
2023-05-08T01:59:46.262Z,1014.70
2023-05-08T02:00:46.592Z,1014.72
2023-05-08T02:01:46.927Z,1014.73
2023-05-08T02:02:47.288Z,1014.74
2023-05-08T02:03:47.527Z,1014.69
2023-05-08T02:04:47.839Z,1014.73
2023-05-08T02:05:48.121Z,1014.72
2023-05-08T02:06:48.416Z,1014.73
2023-05-08T02:07:48.780Z,1014.75
2023-05-08T02:08:49.044Z,1014.75
2023-05-08T02:09:49.316Z,1014.79
2023-05-08T02:10:49.655Z,1014.81
2023-05-08T02:11:49.968Z,1014.79
2023-05-08T02:12:50.387Z,1014.83
2023-05-08T02:13:50.531Z,1014.85
2023-05-08T02:14:50.888Z,1014.81
2023-05-08T02:15:51.162Z,1014.83
2023-05-08T02:16:51.579Z,1014.84
2023-05-08T02:17:51.870Z,1014.88
2023-05-08T02:18:52.195Z,1014.83
2023-05-08T02:19:52.476Z,1014.82
2023-05-08T02:20:52.766Z,1014.82
2023-05-08T02:21:53.168Z,1014.83
2023-05-08T02:22:53.392Z,1014.84
2023-05-08T02:23:53.716Z,1014.85
2023-05-08T02:24:53.992Z,1014.86
2023-05-08T02:25:54.302Z,1014.82
2023-05-08T02:26:54.689Z,1014.87
2023-05-08T02:27:54.943Z,1014.86
2023-05-08T02:28:55.343Z,1014.83
2023-05-08T02:29:55.531Z,1014.84
2023-05-08T02:30:55.854Z,1014.88
2023-05-08T02:31:56.250Z,1014.88
2023-05-08T02:32:58.271Z,1014.90
2023-05-08T02:33:56.652Z,1014.91
2023-05-08T02:35:03.278Z,1014.92
2023-05-08T02:35:58.253Z,1014.92
2023-05-08T02:36:57.595Z,1014.91
2023-05-08T02:37:57.854Z,1014.96
2023-05-08T02:38:58.162Z,1014.92
2023-05-08T02:39:58.433Z,1014.93
2023-05-08T02:40:58.702Z,1014.93
2023-05-08T02:41:59.079Z,1014.96
2023-05-08T02:42:59.327Z,1014.99
2023-05-08T02:43:59.613Z,1014.95
2023-05-08T02:44:59.946Z,1014.98
2023-05-08T02:46:00.274Z,1014.96
2023-05-08T02:47:00.528Z,1014.98
2023-05-08T02:48:00.863Z,1014.98
2023-05-08T02:49:01.149Z,1014.96
2023-05-08T02:50:01.466Z,1015.00
2023-05-08T02:51:01.823Z,1015.00
2023-05-08T02:52:02.090Z,1014.98
2023-05-08T02:53:02.397Z,1014.96
2023-05-08T02:54:02.698Z,1014.97
2023-05-08T02:55:03.004Z,1015.02
2023-05-08T02:56:03.341Z,1015.00
2023-05-08T02:57:03.617Z,1015.02
2023-05-08T02:58:03.963Z,1014.97
2023-05-08T02:59:04.233Z,1015.00
2023-05-08T03:00:04.528Z,1015.04
2023-05-08T03:01:04.901Z,1015.00
2023-05-08T03:02:05.058Z,1015.04
2023-05-08T03:03:05.420Z,1015.02
2023-05-08T03:04:05.694Z,1015.02
2023-05-08T03:05:05.982Z,1015.01
2023-05-08T03:06:06.314Z,1015.06
2023-05-08T03:07:06.614Z,1015.05
2023-05-08T03:08:06.906Z,1015.05
2023-05-08T03:09:07.166Z,1015.08
2023-05-08T03:10:07.469Z,1015.07
2023-05-08T03:11:07.894Z,1015.06
2023-05-08T03:12:08.021Z,1015.10
2023-05-08T03:13:08.420Z,1015.09
2023-05-08T03:14:08.690Z,1015.07
2023-05-08T03:15:08.943Z,1015.07
2023-05-08T03:16:09.316Z,1015.05
2023-05-08T03:17:09.591Z,1015.08
2023-05-08T03:18:09.924Z,1015.02
2023-05-08T03:19:10.251Z,1014.99
2023-05-08T03:20:10.806Z,1015.01
2023-05-08T03:21:10.948Z,1014.99
2023-05-08T03:22:11.141Z,1015.01
2023-05-08T03:23:11.454Z,1015.01
2023-05-08T03:24:11.807Z,1015.05
2023-05-08T03:25:12.049Z,1015.07
2023-05-08T03:26:12.345Z,1015.04
2023-05-08T03:27:12.645Z,1015.06
2023-05-08T03:28:12.937Z,1015.02
2023-05-08T03:29:13.254Z,1015.04
2023-05-08T03:30:13.848Z,1015.00
2023-05-08T03:31:13.896Z,1014.98
2023-05-08T03:32:14.205Z,1014.98
2023-05-08T03:33:14.475Z,1014.97
2023-05-08T03:34:14.790Z,1014.97
2023-05-08T03:35:15.145Z,1014.99
2023-05-08T03:36:15.486Z,1014.99
2023-05-08T03:37:15.764Z,1014.94
2023-05-08T03:38:16.051Z,1014.95
2023-05-08T03:39:16.364Z,1014.95
2023-05-08T03:40:16.657Z,1014.94
2023-05-08T03:41:16.967Z,1014.94
2023-05-08T03:42:17.262Z,1014.98
2023-05-08T03:43:17.554Z,1014.92
2023-05-08T03:44:17.869Z,1014.93
2023-05-08T03:45:18.192Z,1014.95
2023-05-08T03:46:18.417Z,1014.94
2023-05-08T03:47:18.693Z,1014.92
2023-05-08T03:48:18.996Z,1014.92
2023-05-08T03:49:19.323Z,1014.94
2023-05-08T03:50:19.596Z,1014.98
2023-05-08T03:51:19.911Z,1014.98
2023-05-08T03:52:20.232Z,1014.95
2023-05-08T03:53:20.544Z,1014.98
2023-05-08T03:54:20.857Z,1015.01
2023-05-08T03:55:21.140Z,1014.97
2023-05-08T03:56:21.894Z,1015.00
2023-05-08T03:57:21.789Z,1015.02
2023-05-08T03:58:21.971Z,1014.99
2023-05-08T03:59:22.307Z,1015.00
2023-05-08T04:00:22.550Z,1014.97
2023-05-08T04:01:22.819Z,1015.00
2023-05-08T04:02:23.181Z,1014.98
2023-05-08T04:03:23.402Z,1015.00
2023-05-08T04:04:23.590Z,1015.04
2023-05-08T04:05:23.978Z,1015.03
2023-05-08T04:06:24.273Z,1015.06
2023-05-08T04:07:24.572Z,1015.06
2023-05-08T04:08:24.895Z,1015.05
2023-05-08T04:09:25.192Z,1015.06
2023-05-08T04:10:25.488Z,1015.08
2023-05-08T04:11:25.847Z,1015.06
2023-05-08T04:12:26.128Z,1015.08
2023-05-08T04:13:26.615Z,1015.04
2023-05-08T04:14:26.746Z,1015.00
2023-05-08T04:15:27.063Z,1015.00
2023-05-08T04:16:27.405Z,1015.02
2023-05-08T04:17:27.670Z,1014.99
2023-05-08T04:18:27.975Z,1015.04
2023-05-08T04:19:28.333Z,1014.98
2023-05-08T04:20:28.525Z,1014.98
2023-05-08T04:21:28.873Z,1014.98
2023-05-08T04:22:29.111Z,1014.99
2023-05-08T04:23:29.316Z,1014.99
2023-05-08T04:24:29.689Z,1015.00
2023-05-08T04:25:29.869Z,1014.98
2023-05-08T04:26:30.237Z,1015.01
2023-05-08T04:27:30.540Z,1015.02
2023-05-08T04:28:30.905Z,1015.02
2023-05-08T04:29:31.351Z,1015.01
2023-05-08T04:30:31.453Z,1015.01
2023-05-08T04:31:31.815Z,1015.02
2023-05-08T04:32:32.322Z,1015.01
2023-05-08T04:33:32.344Z,1015.02
2023-05-08T04:34:32.700Z,1014.99
2023-05-08T04:35:32.921Z,1014.98
2023-05-08T04:36:33.232Z,1014.99
2023-05-08T04:37:33.581Z,1015.03
2023-05-08T04:38:33.813Z,1015.02
2023-05-08T04:39:34.044Z,1014.99
2023-05-08T04:40:34.396Z,1015.01
2023-05-08T04:41:34.802Z,1015.03
2023-05-08T04:42:34.974Z,1015.06
2023-05-08T04:43:35.293Z,1015.04
2023-05-08T04:44:35.603Z,1015.10
2023-05-08T04:45:36.044Z,1015.09
2023-05-08T04:46:36.330Z,1015.09
2023-05-08T04:47:36.571Z,1015.12
2023-05-08T04:48:36.883Z,1015.14
2023-05-08T04:49:37.217Z,1015.07
2023-05-08T04:50:37.537Z,1015.09
2023-05-08T04:51:37.867Z,1015.11
2023-05-08T04:52:38.222Z,1015.09
2023-05-08T04:53:38.424Z,1015.15
2023-05-08T04:54:38.849Z,1015.12
2023-05-08T04:55:39.043Z,1015.16
2023-05-08T04:56:46.814Z,1015.12
2023-05-08T04:57:39.515Z,1015.11
2023-05-08T04:58:39.768Z,1015.20
2023-05-08T04:59:40.000Z,1015.18
2023-05-08T05:00:40.242Z,1015.23
2023-05-08T05:01:40.503Z,1015.25
2023-05-08T05:02:40.784Z,1015.29
2023-05-08T05:03:41.028Z,1015.31
2023-05-08T05:04:41.352Z,1015.31
2023-05-08T05:05:41.674Z,1015.33
2023-05-08T05:06:41.983Z,1015.33
2023-05-08T05:07:42.197Z,1015.32
2023-05-08T05:08:42.536Z,1015.35
2023-05-08T05:09:42.780Z,1015.32
2023-05-08T05:10:43.094Z,1015.32
2023-05-08T05:11:43.371Z,1015.33
2023-05-08T05:12:43.611Z,1015.34
2023-05-08T05:13:43.833Z,1015.33
2023-05-08T05:14:44.192Z,1015.32
2023-05-08T05:15:44.605Z,1015.32
2023-05-08T05:16:44.744Z,1015.37
2023-05-08T05:17:45.073Z,1015.34
2023-05-08T05:18:45.230Z,1015.36
2023-05-08T05:19:45.483Z,1015.42
2023-05-08T05:20:45.694Z,1015.47
2023-05-08T05:21:46.077Z,1015.49
2023-05-08T05:22:46.358Z,1015.50
2023-05-08T05:23:46.618Z,1015.48
2023-05-08T05:24:46.803Z,1015.50
2023-05-08T05:25:47.095Z,1015.47
2023-05-08T05:26:47.293Z,1015.48
2023-05-08T05:27:47.523Z,1015.47
2023-05-08T05:28:47.820Z,1015.47
2023-05-08T05:29:48.044Z,1015.45
2023-05-08T05:30:48.306Z,1015.41
2023-05-08T05:31:48.659Z,1015.40
2023-05-08T05:32:48.938Z,1015.41
2023-05-08T05:33:49.229Z,1015.42
2023-05-08T05:34:49.411Z,1015.45
2023-05-08T05:35:49.707Z,1015.46
2023-05-08T05:36:49.891Z,1015.50
2023-05-08T05:37:50.165Z,1015.54
2023-05-08T05:38:50.532Z,1015.53
2023-05-08T05:39:50.768Z,1015.52
2023-05-08T05:40:50.966Z,1015.52
2023-05-08T05:41:51.237Z,1015.50
2023-05-08T05:42:51.503Z,1015.56
2023-05-08T05:43:51.743Z,1015.51
2023-05-08T05:44:51.957Z,1015.52
2023-05-08T05:45:52.228Z,1015.57
2023-05-08T05:46:52.497Z,1015.52
2023-05-08T05:47:52.777Z,1015.56
2023-05-08T05:48:53.121Z,1015.58
2023-05-08T05:49:53.311Z,1015.64
2023-05-08T05:50:53.621Z,1015.60
2023-05-08T05:51:53.861Z,1015.58
2023-05-08T05:52:54.162Z,1015.61
2023-05-08T05:53:54.513Z,1015.62
2023-05-08T05:54:54.747Z,1015.60
2023-05-08T05:55:55.006Z,1015.65
2023-05-08T05:56:55.249Z,1015.63
2023-05-08T05:57:55.455Z,1015.66
2023-05-08T05:58:55.760Z,1015.69
2023-05-08T05:59:55.981Z,1015.71
2023-05-08T06:00:56.233Z,1015.73
2023-05-08T06:01:56.537Z,1015.76
2023-05-08T06:02:57.054Z,1015.72
2023-05-08T06:03:57.106Z,1015.76
2023-05-08T06:04:57.290Z,1015.72
2023-05-08T06:05:57.568Z,1015.73
2023-05-08T06:06:57.815Z,1015.74
2023-05-08T06:07:58.059Z,1015.72
2023-05-08T06:08:58.328Z,1015.73
2023-05-08T06:09:58.555Z,1015.74
2023-05-08T06:10:58.808Z,1015.74
2023-05-08T06:11:58.997Z,1015.72
2023-05-08T06:12:59.351Z,1015.76
2023-05-08T06:13:59.532Z,1015.75
2023-05-08T06:14:59.788Z,1015.77
2023-05-08T06:16:00.027Z,1015.80
2023-05-08T06:17:00.316Z,1015.81
2023-05-08T06:18:00.613Z,1015.80
2023-05-08T06:19:00.843Z,1015.80
2023-05-08T06:20:01.084Z,1015.78
2023-05-08T06:21:01.341Z,1015.82
2023-05-08T06:22:01.546Z,1015.79
2023-05-08T06:23:01.811Z,1015.79
2023-05-08T06:24:02.059Z,1015.75
2023-05-08T06:25:02.495Z,1015.79
2023-05-08T06:26:02.661Z,1015.80
2023-05-08T06:27:02.915Z,1015.79
2023-05-08T06:28:03.176Z,1015.81
2023-05-08T06:29:03.420Z,1015.79
2023-05-08T06:30:03.762Z,1015.81
2023-05-08T06:31:04.062Z,1015.84
2023-05-08T06:32:04.298Z,1015.82
2023-05-08T06:33:04.582Z,1015.84
2023-05-08T06:34:04.775Z,1015.84
2023-05-08T06:35:05.008Z,1015.81
2023-05-08T06:36:05.279Z,1015.82
2023-05-08T06:37:05.501Z,1015.78
2023-05-08T06:38:05.767Z,1015.75
2023-05-08T06:39:05.997Z,1015.74
2023-05-08T06:40:11.992Z,1015.77
2023-05-08T06:41:07.537Z,1015.74
2023-05-08T06:42:07.969Z,1015.78
2023-05-08T06:43:07.144Z,1015.78
2023-05-08T06:44:07.424Z,1015.77
2023-05-08T06:45:07.747Z,1015.77
2023-05-08T06:46:08.007Z,1015.78
2023-05-08T06:47:08.200Z,1015.81
2023-05-08T06:48:08.637Z,1015.79
2023-05-08T06:49:08.792Z,1015.84
2023-05-08T06:50:09.106Z,1015.80
2023-05-08T06:51:09.414Z,1015.81
2023-05-08T06:52:09.644Z,1015.81
2023-05-08T06:53:09.823Z,1015.81
2023-05-08T06:54:10.181Z,1015.80
2023-05-08T06:55:10.525Z,1015.77
2023-05-08T06:56:10.719Z,1015.81
2023-05-08T06:57:13.209Z,1015.79
2023-05-08T06:58:11.408Z,1015.79
2023-05-08T06:59:11.650Z,1015.81
2023-05-08T07:00:11.907Z,1015.82
2023-05-08T07:01:12.185Z,1015.79
2023-05-08T07:02:12.517Z,1015.83
2023-05-08T07:03:12.737Z,1015.81
2023-05-08T07:04:12.947Z,1015.83
2023-05-08T07:05:13.471Z,1015.84
2023-05-08T07:06:13.480Z,1015.82
2023-05-08T07:07:13.741Z,1015.82
2023-05-08T07:08:14.157Z,1015.80
2023-05-08T07:09:14.427Z,1015.87
2023-05-08T07:10:14.641Z,1015.85
2023-05-08T07:11:14.934Z,1015.81
2023-05-08T07:12:15.141Z,1015.82
2023-05-08T07:13:15.381Z,1015.83
2023-05-08T07:14:15.752Z,1015.84
2023-05-08T07:15:41.038Z,1015.87
2023-05-08T07:16:17.437Z,1015.83
2023-05-08T07:17:16.559Z,1015.82
2023-05-08T07:18:16.778Z,1015.81
2023-05-08T07:19:17.116Z,1015.85
2023-05-08T07:20:17.520Z,1015.80
2023-05-08T07:21:17.692Z,1015.85
2023-05-08T07:22:18.068Z,1015.80
2023-05-08T07:23:18.406Z,1015.80
2023-05-08T07:24:18.667Z,1015.81
2023-05-08T07:25:18.906Z,1015.78
2023-05-08T07:26:19.151Z,1015.81
2023-05-08T07:27:19.398Z,1015.84
2023-05-08T07:28:19.669Z,1015.78
2023-05-08T07:29:19.874Z,1015.80
2023-05-08T07:30:20.157Z,1015.77
2023-05-08T07:31:20.403Z,1015.82
2023-05-08T07:32:20.628Z,1015.77
2023-05-08T07:33:20.892Z,1015.80
2023-05-08T07:34:21.131Z,1015.84
2023-05-08T07:35:21.364Z,1015.84
2023-05-08T07:36:21.760Z,1015.85
2023-05-08T07:37:22.065Z,1015.86
2023-05-08T07:38:22.249Z,1015.87
2023-05-08T07:39:22.516Z,1015.90
2023-05-08T07:40:22.756Z,1015.90
2023-05-08T07:41:23.055Z,1015.91
2023-05-08T07:42:23.311Z,1015.91
2023-05-08T07:43:23.526Z,1015.90
2023-05-08T07:44:23.733Z,1015.92
2023-05-08T07:45:24.031Z,1015.92
2023-05-08T07:46:24.263Z,1015.90
2023-05-08T07:47:24.538Z,1015.95
2023-05-08T07:48:24.690Z,1015.90
2023-05-08T07:49:25.124Z,1015.92
2023-05-08T07:50:25.336Z,1015.94
2023-05-08T07:51:25.652Z,1015.90
2023-05-08T07:52:25.921Z,1015.92
2023-05-08T07:53:26.133Z,1015.95
2023-05-08T07:54:26.491Z,1015.87
2023-05-08T07:55:26.722Z,1015.93
2023-05-08T07:56:26.979Z,1015.93
2023-05-08T07:57:27.253Z,1015.89
2023-05-08T07:58:27.482Z,1015.88
2023-05-08T07:59:27.724Z,1015.90
2023-05-08T08:00:27.949Z,1015.88
2023-05-08T08:01:28.333Z,1015.89
2023-05-08T08:02:28.626Z,1015.91
2023-05-08T08:03:28.947Z,1015.89
2023-05-08T08:04:29.172Z,1015.94
2023-05-08T08:05:29.386Z,1015.89
2023-05-08T08:06:29.600Z,1015.86
2023-05-08T08:07:29.860Z,1015.93
2023-05-08T08:08:30.086Z,1015.89
2023-05-08T08:09:30.455Z,1015.96
2023-05-08T08:10:30.730Z,1015.92
2023-05-08T08:11:30.932Z,1015.96
2023-05-08T08:12:31.152Z,1015.94
2023-05-08T08:13:31.468Z,1015.93
2023-05-08T08:14:31.637Z,1015.94
2023-05-08T08:15:31.926Z,1015.93
2023-05-08T08:16:32.218Z,1015.94
2023-05-08T08:17:32.468Z,1015.94
2023-05-08T08:18:32.682Z,1015.95
2023-05-08T08:19:32.885Z,1015.95
2023-05-08T08:20:33.250Z,1015.87
2023-05-08T08:21:33.449Z,1015.96
2023-05-08T08:22:33.880Z,1015.94
2023-05-08T08:23:34.048Z,1015.92
2023-05-08T08:24:34.433Z,1015.93
2023-05-08T08:25:34.680Z,1015.98
2023-05-08T08:26:34.891Z,1016.00
2023-05-08T08:27:35.107Z,1015.97
2023-05-08T08:28:35.475Z,1015.98
2023-05-08T08:29:35.710Z,1015.98
2023-05-08T08:30:36.024Z,1015.99
2023-05-08T08:31:36.444Z,1015.97
2023-05-08T08:32:36.678Z,1015.96
2023-05-08T08:33:36.882Z,1015.91
2023-05-08T08:34:37.309Z,1015.97
2023-05-08T08:35:37.570Z,1015.98
2023-05-08T08:36:37.756Z,1015.94
2023-05-08T08:37:38.091Z,1015.96
2023-05-08T08:38:38.352Z,1015.95
2023-05-08T08:39:38.597Z,1015.95
2023-05-08T08:40:38.835Z,1015.97
2023-05-08T08:41:39.076Z,1015.95
2023-05-08T08:42:39.457Z,1015.96
2023-05-08T08:43:39.696Z,1015.96
2023-05-08T08:44:40.183Z,1016.01
2023-05-08T08:45:40.189Z,1015.98
2023-05-08T08:46:40.525Z,1015.97
2023-05-08T08:47:40.789Z,1015.98
2023-05-08T08:48:41.049Z,1015.92
2023-05-08T08:49:41.245Z,1016.02
2023-05-08T08:50:41.461Z,1016.04
2023-05-08T08:51:41.837Z,1016.04
2023-05-08T08:52:42.070Z,1016.05
2023-05-08T08:53:42.364Z,1016.05
2023-05-08T08:54:42.574Z,1016.01
2023-05-08T08:55:42.817Z,1016.01
2023-05-08T08:56:43.121Z,1016.01
2023-05-08T08:57:43.312Z,1016.02
2023-05-08T08:58:43.581Z,1016.03
2023-05-08T08:59:43.821Z,1016.00
2023-05-08T09:00:44.060Z,1016.02
2023-05-08T09:01:44.357Z,1016.03
2023-05-08T09:02:44.749Z,1015.95
2023-05-08T09:03:46.729Z,1016.03
2023-05-08T09:04:45.075Z,1016.00
2023-05-08T09:05:45.431Z,1016.00
2023-05-08T09:06:45.673Z,1015.97
2023-05-08T09:07:45.993Z,1015.97
2023-05-08T09:08:46.230Z,1015.99
2023-05-08T09:09:46.436Z,1016.02
2023-05-08T09:10:46.702Z,1016.00
2023-05-08T09:11:46.949Z,1016.03
2023-05-08T09:12:47.345Z,1016.01
2023-05-08T09:13:47.446Z,1016.02
2023-05-08T09:14:47.711Z,1016.03
2023-05-08T09:15:48.006Z,1016.04
2023-05-08T09:16:48.274Z,1016.04
2023-05-08T09:17:48.539Z,1016.07
2023-05-08T09:18:48.725Z,1016.09
2023-05-08T09:19:48.925Z,1016.09
2023-05-08T09:20:49.318Z,1016.07
2023-05-08T09:21:49.558Z,1016.09
2023-05-08T09:22:49.839Z,1016.07
2023-05-08T09:23:50.075Z,1016.07
2023-05-08T09:24:50.331Z,1016.07
2023-05-08T09:25:50.489Z,1016.08
2023-05-08T09:26:50.871Z,1016.05
2023-05-08T09:27:51.125Z,1016.04
2023-05-08T09:28:51.406Z,1016.10
2023-05-08T09:29:51.611Z,1016.07
2023-05-08T09:30:51.860Z,1016.06
2023-05-08T09:31:52.112Z,1016.08
2023-05-08T09:32:52.465Z,1016.03
2023-05-08T09:33:52.649Z,1016.04
2023-05-08T09:34:52.918Z,1016.04
2023-05-08T09:35:53.141Z,1016.05
2023-05-08T09:36:53.367Z,1016.11
2023-05-08T09:37:55.069Z,1016.05
2023-05-08T09:38:53.895Z,1016.06
2023-05-08T09:39:54.179Z,1016.10
2023-05-08T09:40:54.341Z,1016.06
2023-05-08T09:41:54.612Z,1016.05
2023-05-08T09:42:54.833Z,1016.08
2023-05-08T09:43:55.072Z,1016.09
2023-05-08T09:44:55.325Z,1016.05
2023-05-08T09:45:55.609Z,1016.10
2023-05-08T09:46:55.858Z,1016.09
2023-05-08T09:47:56.124Z,1016.12
2023-05-08T09:48:56.359Z,1016.09
2023-05-08T09:49:56.663Z,1016.13
2023-05-08T09:50:56.882Z,1016.11
2023-05-08T09:51:57.130Z,1016.11
2023-05-08T09:52:57.534Z,1016.13
2023-05-08T09:53:57.711Z,1016.11
2023-05-08T09:54:58.030Z,1016.15
2023-05-08T09:55:58.310Z,1016.20
2023-05-08T09:56:58.456Z,1016.13
2023-05-08T09:57:58.873Z,1016.14
2023-05-08T09:58:59.038Z,1016.10
2023-05-08T09:59:59.365Z,1016.08
2023-05-08T10:00:59.578Z,1016.15
2023-05-08T10:01:59.931Z,1016.17
2023-05-08T10:03:00.274Z,1016.17
2023-05-08T10:04:00.565Z,1016.19
2023-05-08T10:05:00.926Z,1016.22
2023-05-08T10:06:01.046Z,1016.18
2023-05-08T10:07:01.287Z,1016.16
2023-05-08T10:08:01.560Z,1016.21
2023-05-08T10:09:01.881Z,1016.20
2023-05-08T10:10:02.199Z,1016.19
2023-05-08T10:11:02.440Z,1016.24
2023-05-08T10:12:02.659Z,1016.19
2023-05-08T10:13:03.048Z,1016.20
2023-05-08T10:14:03.233Z,1016.19
2023-05-08T10:15:03.610Z,1016.17
2023-05-08T10:16:03.901Z,1016.20
2023-05-08T10:17:04.303Z,1016.25
2023-05-08T10:18:04.463Z,1016.25
2023-05-08T10:19:04.683Z,1016.25
2023-05-08T10:20:05.019Z,1016.20
2023-05-08T10:21:05.295Z,1016.22
2023-05-08T10:22:05.563Z,1016.20
2023-05-08T10:23:05.958Z,1016.17
2023-05-08T10:24:06.136Z,1016.17
2023-05-08T10:25:06.490Z,1016.22
2023-05-08T10:26:06.775Z,1016.18
2023-05-08T10:27:08.010Z,1016.15
2023-05-08T10:28:07.255Z,1016.17
2023-05-08T10:29:07.535Z,1016.14
2023-05-08T10:30:07.766Z,1016.16
2023-05-08T10:31:08.121Z,1016.16
2023-05-08T10:32:08.397Z,1016.11
2023-05-08T10:33:08.666Z,1016.11
2023-05-08T10:34:08.753Z,1016.16
2023-05-08T10:35:09.010Z,1016.08
2023-05-08T10:36:09.401Z,1016.10
2023-05-08T10:37:09.507Z,1016.09
2023-05-08T10:38:09.730Z,1016.10
2023-05-08T10:39:09.962Z,1016.06
2023-05-08T10:40:10.309Z,1016.08
2023-05-08T10:41:10.609Z,1016.05
2023-05-08T10:42:10.699Z,1016.11
2023-05-08T10:43:10.947Z,1016.08
2023-05-08T10:44:11.398Z,1016.08
2023-05-08T10:45:11.454Z,1016.05
2023-05-08T10:46:11.756Z,1016.06
2023-05-08T10:47:11.975Z,1016.03
2023-05-08T10:48:12.248Z,1015.99
2023-05-08T10:49:12.500Z,1016.02
2023-05-08T10:50:12.988Z,1016.06
2023-05-08T10:51:13.071Z,1015.96
2023-05-08T10:52:13.336Z,1015.97
2023-05-08T10:53:13.678Z,1015.95
2023-05-08T10:54:13.865Z,1015.94
2023-05-08T10:55:14.118Z,1016.01
2023-05-08T10:56:14.325Z,1015.96
2023-05-08T10:57:14.553Z,1015.97
2023-05-08T10:58:14.853Z,1015.94
2023-05-08T10:59:15.046Z,1015.96
2023-05-08T11:00:15.475Z,1015.98
2023-05-08T11:01:15.605Z,1016.00
2023-05-08T11:02:15.894Z,1016.00
2023-05-08T11:03:30.012Z,1015.97
2023-05-08T11:04:17.692Z,1015.95
2023-05-08T11:05:16.731Z,1015.99
2023-05-08T11:06:16.962Z,1016.01
2023-05-08T11:07:17.345Z,1015.98
2023-05-08T11:08:17.539Z,1016.02
2023-05-08T11:09:17.855Z,1016.04
2023-05-08T11:10:18.096Z,1016.04
2023-05-08T11:11:18.429Z,1016.02
2023-05-08T11:12:18.780Z,1016.02
2023-05-08T11:13:19.097Z,1016.03
2023-05-08T11:14:19.317Z,1015.97
2023-05-08T11:15:19.536Z,1016.02
2023-05-08T11:16:19.858Z,1015.99
2023-05-08T11:17:20.046Z,1015.94
2023-05-08T11:18:20.316Z,1015.95
2023-05-08T11:19:20.547Z,1015.96
2023-05-08T11:20:20.827Z,1015.91
2023-05-08T11:21:21.098Z,1015.97
2023-05-08T11:22:21.383Z,1015.96
2023-05-08T11:23:21.662Z,1015.91
2023-05-08T11:24:21.995Z,1015.93
2023-05-08T11:25:22.249Z,1015.90
2023-05-08T11:26:22.566Z,1015.93
2023-05-08T11:27:22.785Z,1015.90
2023-05-08T11:28:23.084Z,1015.84
2023-05-08T11:29:23.392Z,1015.81
2023-05-08T11:30:23.683Z,1015.85
2023-05-08T11:31:23.894Z,1015.85
2023-05-08T11:32:24.271Z,1015.82
2023-05-08T11:33:24.380Z,1015.88
2023-05-08T11:34:24.650Z,1015.80
2023-05-08T11:35:24.825Z,1015.79
2023-05-08T11:36:25.234Z,1015.83
2023-05-08T11:37:25.445Z,1015.82
2023-05-08T11:38:25.653Z,1015.80
2023-05-08T11:39:26.071Z,1015.75
2023-05-08T11:40:26.285Z,1015.77
2023-05-08T11:41:26.518Z,1015.80
2023-05-08T11:42:26.800Z,1015.79
2023-05-08T11:43:27.186Z,1015.71
2023-05-08T11:44:27.290Z,1015.73
2023-05-08T11:45:27.526Z,1015.70
2023-05-08T11:46:27.876Z,1015.70
2023-05-08T11:47:28.076Z,1015.71
2023-05-08T11:48:28.363Z,1015.75
2023-05-08T11:49:29.946Z,1015.70
2023-05-08T11:50:28.861Z,1015.70
2023-05-08T11:51:29.222Z,1015.70
2023-05-08T11:52:29.628Z,1015.70
2023-05-08T11:53:29.776Z,1015.75
2023-05-08T11:54:30.048Z,1015.74
2023-05-08T11:55:30.282Z,1015.71
2023-05-08T11:56:30.550Z,1015.66
2023-05-08T11:57:30.748Z,1015.68
2023-05-08T11:58:31.011Z,1015.63
2023-05-08T11:59:31.243Z,1015.67
2023-05-08T12:00:31.657Z,1015.68
2023-05-08T12:01:31.860Z,1015.69
2023-05-08T12:02:33.858Z,1015.70
2023-05-08T12:03:32.515Z,1015.70
2023-05-08T12:04:32.777Z,1015.69
2023-05-08T12:05:32.887Z,1015.69
2023-05-08T12:06:33.189Z,1015.72
2023-05-08T12:07:33.375Z,1015.64
2023-05-08T12:08:33.863Z,1015.67